sensor_id;sensor_type;location;lat;lon;timestamp;P1;durP1;ratioP1;P2;durP2;ratioP2
26277;SDS011;14000;52.056;8.510;2023-03-13T00:01:00;33.67;;;5.60;;
26277;SDS011;14000;52.056;8.510;2023-03-13T00:03:33;31.43;;;4.93;;
26277;SDS011;14000;52.056;8.510;2023-03-13T00:05:59;30.17;;;5.20;;
26277;SDS011;14000;52.056;8.510;2023-03-13T00:08:24;24.43;;;4.53;;
26277;SDS011;14000;52.056;8.510;2023-03-13T00:10:53;33.40;;;5.10;;
26277;SDS011;14000;52.056;8.510;2023-03-13T00:13:18;34.93;;;5.93;;
26277;SDS011;14000;52.056;8.510;2023-03-13T00:15:44;32.83;;;5.37;;
26277;SDS011;14000;52.056;8.510;2023-03-13T00:18:09;27.63;;;4.53;;
26277;SDS011;14000;52.056;8.510;2023-03-13T00:20:35;30.27;;;5.77;;
26277;SDS011;14000;52.056;8.510;2023-03-13T00:23:01;25.03;;;4.90;;
26277;SDS011;14000;52.056;8.510;2023-03-13T00:25:26;33.53;;;5.00;;
26277;SDS011;14000;52.056;8.510;2023-03-13T00:27:52;29.57;;;5.90;;
26277;SDS011;14000;52.056;8.510;2023-03-13T00:30:17;28.67;;;4.93;;
26277;SDS011;14000;52.056;8.510;2023-03-13T00:32:44;29.90;;;5.50;;
26277;SDS011;14000;52.056;8.510;2023-03-13T00:35:11;27.77;;;6.00;;
26277;SDS011;14000;52.056;8.510;2023-03-13T00:37:37;34.67;;;6.40;;
26277;SDS011;14000;52.056;8.510;2023-03-13T00:40:03;30.23;;;6.43;;
26277;SDS011;14000;52.056;8.510;2023-03-13T00:42:30;32.10;;;5.90;;
26277;SDS011;14000;52.056;8.510;2023-03-13T00:44:56;30.83;;;5.20;;
26277;SDS011;14000;52.056;8.510;2023-03-13T00:47:22;29.47;;;5.37;;
26277;SDS011;14000;52.056;8.510;2023-03-13T00:49:47;32.17;;;5.43;;
26277;SDS011;14000;52.056;8.510;2023-03-13T00:52:13;32.80;;;5.47;;
26277;SDS011;14000;52.056;8.510;2023-03-13T00:54:38;28.37;;;5.40;;
26277;SDS011;14000;52.056;8.510;2023-03-13T00:57:05;28.73;;;4.77;;
26277;SDS011;14000;52.056;8.510;2023-03-13T00:59:30;31.50;;;5.57;;
26277;SDS011;14000;52.056;8.510;2023-03-13T01:01:56;28.20;;;4.90;;
26277;SDS011;14000;52.056;8.510;2023-03-13T01:04:21;35.70;;;6.07;;
26277;SDS011;14000;52.056;8.510;2023-03-13T01:06:47;32.33;;;5.93;;
26277;SDS011;14000;52.056;8.510;2023-03-13T01:09:14;23.23;;;4.77;;
26277;SDS011;14000;52.056;8.510;2023-03-13T01:11:41;35.23;;;5.97;;
26277;SDS011;14000;52.056;8.510;2023-03-13T01:14:08;26.80;;;5.33;;
26277;SDS011;14000;52.056;8.510;2023-03-13T01:16:36;30.07;;;5.17;;
26277;SDS011;14000;52.056;8.510;2023-03-13T01:19:03;29.87;;;4.93;;
26277;SDS011;14000;52.056;8.510;2023-03-13T01:21:31;29.70;;;5.07;;
26277;SDS011;14000;52.056;8.510;2023-03-13T01:23:57;30.53;;;6.20;;
26277;SDS011;14000;52.056;8.510;2023-03-13T01:26:23;27.40;;;5.27;;
26277;SDS011;14000;52.056;8.510;2023-03-13T01:28:50;33.00;;;5.90;;
26277;SDS011;14000;52.056;8.510;2023-03-13T01:31:17;26.40;;;4.63;;
26277;SDS011;14000;52.056;8.510;2023-03-13T01:33:44;30.80;;;4.43;;
26277;SDS011;14000;52.056;8.510;2023-03-13T01:36:11;25.20;;;5.37;;
26277;SDS011;14000;52.056;8.510;2023-03-13T01:38:37;29.47;;;4.93;;
26277;SDS011;14000;52.056;8.510;2023-03-13T01:41:03;27.23;;;5.00;;
26277;SDS011;14000;52.056;8.510;2023-03-13T01:43:31;28.43;;;5.90;;
26277;SDS011;14000;52.056;8.510;2023-03-13T01:46:02;27.23;;;5.20;;
26277;SDS011;14000;52.056;8.510;2023-03-13T01:48:35;27.80;;;5.60;;
26277;SDS011;14000;52.056;8.510;2023-03-13T01:53:56;30.83;;;5.27;;
26277;SDS011;14000;52.056;8.510;2023-03-13T01:59:14;35.00;;;6.00;;
26277;SDS011;14000;52.056;8.510;2023-03-13T02:01:43;33.77;;;6.07;;
26277;SDS011;14000;52.056;8.510;2023-03-13T02:04:11;29.57;;;5.10;;
26277;SDS011;14000;52.056;8.510;2023-03-13T02:06:39;34.57;;;5.80;;
26277;SDS011;14000;52.056;8.510;2023-03-13T02:09:09;35.60;;;5.97;;
26277;SDS011;14000;52.056;8.510;2023-03-13T02:14:29;28.93;;;5.43;;
26277;SDS011;14000;52.056;8.510;2023-03-13T02:16:59;34.53;;;5.50;;
26277;SDS011;14000;52.056;8.510;2023-03-13T02:24:51;31.10;;;5.83;;
26277;SDS011;14000;52.056;8.510;2023-03-13T02:27:29;39.73;;;6.57;;
26277;SDS011;14000;52.056;8.510;2023-03-13T02:29:54;35.70;;;5.80;;
26277;SDS011;14000;52.056;8.510;2023-03-13T02:32:21;33.37;;;5.83;;
26277;SDS011;14000;52.056;8.510;2023-03-13T02:34:48;33.13;;;6.07;;
26277;SDS011;14000;52.056;8.510;2023-03-13T02:37:16;37.10;;;6.03;;
26277;SDS011;14000;52.056;8.510;2023-03-13T02:39:45;28.97;;;5.47;;
26277;SDS011;14000;52.056;8.510;2023-03-13T02:42:14;30.20;;;5.20;;
26277;SDS011;14000;52.056;8.510;2023-03-13T02:44:44;33.83;;;5.57;;
26277;SDS011;14000;52.056;8.510;2023-03-13T02:47:11;38.67;;;6.23;;
26277;SDS011;14000;52.056;8.510;2023-03-13T02:49:41;33.70;;;5.30;;
26277;SDS011;14000;52.056;8.510;2023-03-13T02:52:29;33.10;;;5.67;;
26277;SDS011;14000;52.056;8.510;2023-03-13T02:55:03;25.83;;;5.13;;
26277;SDS011;14000;52.056;8.510;2023-03-13T02:57:33;37.37;;;6.20;;
26277;SDS011;14000;52.056;8.510;2023-03-13T02:59:59;40.43;;;5.67;;
26277;SDS011;14000;52.056;8.510;2023-03-13T03:02:25;33.37;;;7.43;;
26277;SDS011;14000;52.056;8.510;2023-03-13T03:04:51;33.63;;;5.10;;
26277;SDS011;14000;52.056;8.510;2023-03-13T03:07:17;26.37;;;5.97;;
26277;SDS011;14000;52.056;8.510;2023-03-13T03:09:43;36.67;;;5.13;;
26277;SDS011;14000;52.056;8.510;2023-03-13T03:12:08;34.33;;;5.80;;
26277;SDS011;14000;52.056;8.510;2023-03-13T03:14:34;30.70;;;5.37;;
26277;SDS011;14000;52.056;8.510;2023-03-13T03:17:00;29.93;;;6.80;;
26277;SDS011;14000;52.056;8.510;2023-03-13T03:19:25;39.83;;;6.67;;
26277;SDS011;14000;52.056;8.510;2023-03-13T03:21:51;42.07;;;6.60;;
26277;SDS011;14000;52.056;8.510;2023-03-13T03:24:16;34.07;;;5.57;;
26277;SDS011;14000;52.056;8.510;2023-03-13T03:26:42;40.80;;;7.10;;
26277;SDS011;14000;52.056;8.510;2023-03-13T03:29:07;27.27;;;6.50;;
26277;SDS011;14000;52.056;8.510;2023-03-13T03:31:34;28.37;;;5.77;;
26277;SDS011;14000;52.056;8.510;2023-03-13T03:34:00;40.00;;;7.20;;
26277;SDS011;14000;52.056;8.510;2023-03-13T03:36:26;29.27;;;6.03;;
26277;SDS011;14000;52.056;8.510;2023-03-13T03:38:52;26.73;;;6.43;;
26277;SDS011;14000;52.056;8.510;2023-03-13T03:41:18;32.90;;;7.00;;
26277;SDS011;14000;52.056;8.510;2023-03-13T03:43:44;33.10;;;6.50;;
26277;SDS011;14000;52.056;8.510;2023-03-13T03:46:11;28.07;;;6.83;;
26277;SDS011;14000;52.056;8.510;2023-03-13T03:48:38;35.43;;;6.63;;
26277;SDS011;14000;52.056;8.510;2023-03-13T03:51:04;41.03;;;7.63;;
26277;SDS011;14000;52.056;8.510;2023-03-13T03:53:30;33.83;;;7.00;;
26277;SDS011;14000;52.056;8.510;2023-03-13T03:55:56;26.27;;;6.40;;
26277;SDS011;14000;52.056;8.510;2023-03-13T03:58:22;29.17;;;6.87;;
26277;SDS011;14000;52.056;8.510;2023-03-13T04:00:48;37.00;;;7.13;;
26277;SDS011;14000;52.056;8.510;2023-03-13T04:03:14;35.93;;;6.33;;
26277;SDS011;14000;52.056;8.510;2023-03-13T04:05:41;33.37;;;6.17;;
26277;SDS011;14000;52.056;8.510;2023-03-13T04:08:07;36.77;;;7.87;;
26277;SDS011;14000;52.056;8.510;2023-03-13T04:10:33;31.40;;;6.90;;
26277;SDS011;14000;52.056;8.510;2023-03-13T04:12:59;33.97;;;6.90;;
26277;SDS011;14000;52.056;8.510;2023-03-13T04:15:25;21.30;;;5.83;;
26277;SDS011;14000;52.056;8.510;2023-03-13T04:17:51;23.93;;;6.03;;
26277;SDS011;14000;52.056;8.510;2023-03-13T04:20:16;28.13;;;6.57;;
26277;SDS011;14000;52.056;8.510;2023-03-13T04:22:42;33.47;;;6.83;;
26277;SDS011;14000;52.056;8.510;2023-03-13T04:25:08;24.97;;;6.20;;
26277;SDS011;14000;52.056;8.510;2023-03-13T04:27:34;27.97;;;5.67;;
26277;SDS011;14000;52.056;8.510;2023-03-13T04:30:00;31.57;;;6.47;;
26277;SDS011;14000;52.056;8.510;2023-03-13T04:32:26;17.10;;;5.13;;
26277;SDS011;14000;52.056;8.510;2023-03-13T04:34:51;21.60;;;4.87;;
26277;SDS011;14000;52.056;8.510;2023-03-13T04:37:17;22.30;;;4.90;;
26277;SDS011;14000;52.056;8.510;2023-03-13T04:39:43;27.03;;;5.33;;
26277;SDS011;14000;52.056;8.510;2023-03-13T04:42:09;26.00;;;5.63;;
26277;SDS011;14000;52.056;8.510;2023-03-13T04:44:35;24.27;;;5.60;;
26277;SDS011;14000;52.056;8.510;2023-03-13T04:47:01;29.10;;;6.43;;
26277;SDS011;14000;52.056;8.510;2023-03-13T04:49:27;22.87;;;5.20;;
26277;SDS011;14000;52.056;8.510;2023-03-13T04:51:53;18.97;;;5.30;;
26277;SDS011;14000;52.056;8.510;2023-03-13T04:54:18;20.47;;;4.70;;
26277;SDS011;14000;52.056;8.510;2023-03-13T04:56:44;16.97;;;4.40;;
26277;SDS011;14000;52.056;8.510;2023-03-13T04:59:10;17.23;;;4.43;;
26277;SDS011;14000;52.056;8.510;2023-03-13T05:01:36;18.40;;;4.20;;
26277;SDS011;14000;52.056;8.510;2023-03-13T05:04:02;15.40;;;4.67;;
26277;SDS011;14000;52.056;8.510;2023-03-13T05:06:27;17.47;;;4.30;;
26277;SDS011;14000;52.056;8.510;2023-03-13T05:08:53;15.47;;;4.40;;
26277;SDS011;14000;52.056;8.510;2023-03-13T05:11:19;15.10;;;4.70;;
26277;SDS011;14000;52.056;8.510;2023-03-13T05:13:44;17.53;;;5.30;;
26277;SDS011;14000;52.056;8.510;2023-03-13T05:16:10;16.33;;;4.67;;
26277;SDS011;14000;52.056;8.510;2023-03-13T05:18:35;14.03;;;4.80;;
26277;SDS011;14000;52.056;8.510;2023-03-13T05:21:01;18.23;;;5.27;;
26277;SDS011;14000;52.056;8.510;2023-03-13T05:23:27;14.47;;;4.57;;
26277;SDS011;14000;52.056;8.510;2023-03-13T05:25:52;15.67;;;4.50;;
26277;SDS011;14000;52.056;8.510;2023-03-13T05:28:18;16.63;;;4.87;;
26277;SDS011;14000;52.056;8.510;2023-03-13T05:30:44;12.97;;;4.23;;
26277;SDS011;14000;52.056;8.510;2023-03-13T05:33:09;12.47;;;4.10;;
26277;SDS011;14000;52.056;8.510;2023-03-13T05:35:35;16.47;;;4.70;;
26277;SDS011;14000;52.056;8.510;2023-03-13T05:38:01;11.77;;;4.57;;
26277;SDS011;14000;52.056;8.510;2023-03-13T05:40:26;11.10;;;4.37;;
26277;SDS011;14000;52.056;8.510;2023-03-13T05:42:52;15.03;;;5.10;;
26277;SDS011;14000;52.056;8.510;2023-03-13T05:45:19;12.80;;;4.70;;
26277;SDS011;14000;52.056;8.510;2023-03-13T05:47:45;15.67;;;5.70;;
26277;SDS011;14000;52.056;8.510;2023-03-13T05:50:11;14.20;;;4.53;;
26277;SDS011;14000;52.056;8.510;2023-03-13T05:52:36;16.90;;;4.80;;
26277;SDS011;14000;52.056;8.510;2023-03-13T05:55:02;11.00;;;4.13;;
26277;SDS011;14000;52.056;8.510;2023-03-13T05:57:28;11.73;;;4.03;;
26277;SDS011;14000;52.056;8.510;2023-03-13T05:59:53;11.87;;;5.33;;
26277;SDS011;14000;52.056;8.510;2023-03-13T06:02:19;10.87;;;4.80;;
26277;SDS011;14000;52.056;8.510;2023-03-13T06:04:45;11.10;;;4.30;;
26277;SDS011;14000;52.056;8.510;2023-03-13T06:07:11;11.37;;;4.00;;
26277;SDS011;14000;52.056;8.510;2023-03-13T06:09:37;11.27;;;4.80;;
26277;SDS011;14000;52.056;8.510;2023-03-13T06:12:02;9.67;;;4.20;;
26277;SDS011;14000;52.056;8.510;2023-03-13T06:14:28;10.10;;;4.03;;
26277;SDS011;14000;52.056;8.510;2023-03-13T06:16:54;11.20;;;5.13;;
26277;SDS011;14000;52.056;8.510;2023-03-13T06:19:20;14.43;;;5.20;;
26277;SDS011;14000;52.056;8.510;2023-03-13T06:21:48;11.67;;;5.40;;
26277;SDS011;14000;52.056;8.510;2023-03-13T06:24:14;13.83;;;6.07;;
26277;SDS011;14000;52.056;8.510;2023-03-13T06:26:40;12.53;;;6.00;;
26277;SDS011;14000;52.056;8.510;2023-03-13T06:29:05;15.30;;;6.23;;
26277;SDS011;14000;52.056;8.510;2023-03-13T06:31:31;15.57;;;8.23;;
26277;SDS011;14000;52.056;8.510;2023-03-13T06:33:57;18.30;;;7.80;;
26277;SDS011;14000;52.056;8.510;2023-03-13T06:36:23;14.33;;;7.23;;
26277;SDS011;14000;52.056;8.510;2023-03-13T06:38:49;14.27;;;6.93;;
26277;SDS011;14000;52.056;8.510;2023-03-13T06:41:15;17.63;;;7.47;;
26277;SDS011;14000;52.056;8.510;2023-03-13T06:43:41;14.57;;;8.50;;
26277;SDS011;14000;52.056;8.510;2023-03-13T06:46:07;19.17;;;8.73;;
26277;SDS011;14000;52.056;8.510;2023-03-13T06:48:39;17.83;;;8.80;;
26277;SDS011;14000;52.056;8.510;2023-03-13T06:51:08;17.87;;;8.87;;
26277;SDS011;14000;52.056;8.510;2023-03-13T06:53:35;17.40;;;11.03;;
26277;SDS011;14000;52.056;8.510;2023-03-13T06:56:01;18.90;;;9.67;;
26277;SDS011;14000;52.056;8.510;2023-03-13T06:58:26;18.03;;;10.10;;
26277;SDS011;14000;52.056;8.510;2023-03-13T07:00:52;16.90;;;9.70;;
26277;SDS011;14000;52.056;8.510;2023-03-13T07:03:17;18.57;;;10.20;;
26277;SDS011;14000;52.056;8.510;2023-03-13T07:05:43;17.80;;;10.57;;
26277;SDS011;14000;52.056;8.510;2023-03-13T07:08:08;19.10;;;9.57;;
26277;SDS011;14000;52.056;8.510;2023-03-13T07:10:34;15.93;;;9.27;;
26277;SDS011;14000;52.056;8.510;2023-03-13T07:13:00;20.37;;;10.50;;
26277;SDS011;14000;52.056;8.510;2023-03-13T07:15:25;16.53;;;8.87;;
26277;SDS011;14000;52.056;8.510;2023-03-13T07:17:51;16.57;;;9.03;;
26277;SDS011;14000;52.056;8.510;2023-03-13T07:20:16;17.07;;;9.90;;
26277;SDS011;14000;52.056;8.510;2023-03-13T07:22:42;18.80;;;9.90;;
26277;SDS011;14000;52.056;8.510;2023-03-13T07:25:07;14.93;;;9.37;;
26277;SDS011;14000;52.056;8.510;2023-03-13T07:27:33;19.20;;;9.80;;
26277;SDS011;14000;52.056;8.510;2023-03-13T07:29:59;18.80;;;9.63;;
26277;SDS011;14000;52.056;8.510;2023-03-13T07:32:25;16.47;;;9.63;;
26277;SDS011;14000;52.056;8.510;2023-03-13T07:34:54;15.30;;;8.70;;
26277;SDS011;14000;52.056;8.510;2023-03-13T07:37:20;17.53;;;8.77;;
26277;SDS011;14000;52.056;8.510;2023-03-13T07:39:46;16.00;;;8.90;;
26277;SDS011;14000;52.056;8.510;2023-03-13T07:42:11;17.40;;;8.80;;
26277;SDS011;14000;52.056;8.510;2023-03-13T07:44:37;15.73;;;8.77;;
26277;SDS011;14000;52.056;8.510;2023-03-13T07:47:03;17.13;;;8.50;;
26277;SDS011;14000;52.056;8.510;2023-03-13T07:49:28;12.90;;;7.17;;
26277;SDS011;14000;52.056;8.510;2023-03-13T07:51:54;14.53;;;7.43;;
26277;SDS011;14000;52.056;8.510;2023-03-13T07:54:20;15.03;;;7.50;;
26277;SDS011;14000;52.056;8.510;2023-03-13T07:56:46;11.97;;;6.50;;
26277;SDS011;14000;52.056;8.510;2023-03-13T07:59:12;11.80;;;6.03;;
26277;SDS011;14000;52.056;8.510;2023-03-13T08:01:38;11.10;;;5.93;;
26277;SDS011;14000;52.056;8.510;2023-03-13T08:04:03;12.80;;;6.13;;
26277;SDS011;14000;52.056;8.510;2023-03-13T08:06:33;12.80;;;5.23;;
26277;SDS011;14000;52.056;8.510;2023-03-13T08:09:03;15.47;;;6.57;;
26277;SDS011;14000;52.056;8.510;2023-03-13T08:11:29;11.20;;;5.30;;
26277;SDS011;14000;52.056;8.510;2023-03-13T08:13:55;11.47;;;5.20;;
26277;SDS011;14000;52.056;8.510;2023-03-13T08:16:23;12.00;;;5.50;;
26277;SDS011;14000;52.056;8.510;2023-03-13T08:18:54;10.90;;;5.40;;
26277;SDS011;14000;52.056;8.510;2023-03-13T08:21:22;10.53;;;4.83;;
26277;SDS011;14000;52.056;8.510;2023-03-13T08:23:54;10.57;;;4.90;;
26277;SDS011;14000;52.056;8.510;2023-03-13T08:26:24;9.10;;;4.37;;
26277;SDS011;14000;52.056;8.510;2023-03-13T08:28:53;12.27;;;4.00;;
26277;SDS011;14000;52.056;8.510;2023-03-13T08:31:24;8.97;;;3.73;;
26277;SDS011;14000;52.056;8.510;2023-03-13T08:33:53;10.57;;;4.20;;
26277;SDS011;14000;52.056;8.510;2023-03-13T08:36:22;11.40;;;3.83;;
26277;SDS011;14000;52.056;8.510;2023-03-13T08:38:53;10.40;;;4.00;;
26277;SDS011;14000;52.056;8.510;2023-03-13T08:41:23;10.37;;;3.90;;
26277;SDS011;14000;52.056;8.510;2023-03-13T08:43:53;8.83;;;3.60;;
26277;SDS011;14000;52.056;8.510;2023-03-13T08:46:19;9.70;;;3.47;;
26277;SDS011;14000;52.056;8.510;2023-03-13T08:48:52;10.20;;;3.50;;
26277;SDS011;14000;52.056;8.510;2023-03-13T08:51:19;11.00;;;3.57;;
26277;SDS011;14000;52.056;8.510;2023-03-13T08:53:47;10.73;;;3.80;;
26277;SDS011;14000;52.056;8.510;2023-03-13T08:56:14;10.43;;;3.70;;
26277;SDS011;14000;52.056;8.510;2023-03-13T08:58:41;12.90;;;4.13;;
26277;SDS011;14000;52.056;8.510;2023-03-13T09:01:08;9.77;;;3.53;;
26277;SDS011;14000;52.056;8.510;2023-03-13T09:03:35;10.53;;;3.90;;
26277;SDS011;14000;52.056;8.510;2023-03-13T09:06:02;10.63;;;3.40;;
26277;SDS011;14000;52.056;8.510;2023-03-13T09:08:28;11.30;;;4.00;;
26277;SDS011;14000;52.056;8.510;2023-03-13T09:10:58;10.00;;;4.00;;
26277;SDS011;14000;52.056;8.510;2023-03-13T09:13:24;13.90;;;3.60;;
26277;SDS011;14000;52.056;8.510;2023-03-13T09:15:56;10.70;;;3.50;;
26277;SDS011;14000;52.056;8.510;2023-03-13T09:18:23;11.33;;;3.20;;
26277;SDS011;14000;52.056;8.510;2023-03-13T09:20:49;11.47;;;3.67;;
26277;SDS011;14000;52.056;8.510;2023-03-13T09:23:15;13.57;;;4.07;;
26277;SDS011;14000;52.056;8.510;2023-03-13T09:25:41;13.00;;;3.83;;
26277;SDS011;14000;52.056;8.510;2023-03-13T09:28:07;10.43;;;2.70;;
26277;SDS011;14000;52.056;8.510;2023-03-13T09:30:32;11.80;;;3.90;;
26277;SDS011;14000;52.056;8.510;2023-03-13T09:32:58;12.50;;;3.83;;
26277;SDS011;14000;52.056;8.510;2023-03-13T09:35:23;11.53;;;3.60;;
26277;SDS011;14000;52.056;8.510;2023-03-13T09:37:49;12.27;;;4.20;;
26277;SDS011;14000;52.056;8.510;2023-03-13T09:40:16;12.43;;;4.10;;
26277;SDS011;14000;52.056;8.510;2023-03-13T09:42:45;11.57;;;3.63;;
26277;SDS011;14000;52.056;8.510;2023-03-13T09:45:18;11.57;;;3.90;;
26277;SDS011;14000;52.056;8.510;2023-03-13T09:48:06;13.63;;;3.97;;
26277;SDS011;14000;52.056;8.510;2023-03-13T09:50:45;17.63;;;4.27;;
26277;SDS011;14000;52.056;8.510;2023-03-13T09:53:29;15.70;;;4.43;;
26277;SDS011;14000;52.056;8.510;2023-03-13T09:56:03;14.80;;;4.53;;
26277;SDS011;14000;52.056;8.510;2023-03-13T09:58:32;12.53;;;4.27;;
26277;SDS011;14000;52.056;8.510;2023-03-13T10:01:03;12.87;;;4.00;;
26277;SDS011;14000;52.056;8.510;2023-03-13T10:03:30;11.57;;;4.03;;
26277;SDS011;14000;52.056;8.510;2023-03-13T10:06:03;15.03;;;4.10;;
26277;SDS011;14000;52.056;8.510;2023-03-13T10:08:36;13.83;;;4.30;;
26277;SDS011;14000;52.056;8.510;2023-03-13T10:19:26;9.37;;;3.87;;
26277;SDS011;14000;52.056;8.510;2023-03-13T10:21:56;12.97;;;4.03;;
26277;SDS011;14000;52.056;8.510;2023-03-13T10:27:15;12.27;;;3.33;;
26277;SDS011;14000;52.056;8.510;2023-03-13T10:29:41;12.53;;;3.00;;
26277;SDS011;14000;52.056;8.510;2023-03-13T10:32:08;12.23;;;3.20;;
26277;SDS011;14000;52.056;8.510;2023-03-13T10:37:27;12.87;;;3.70;;
26277;SDS011;14000;52.056;8.510;2023-03-13T10:39:54;10.57;;;3.03;;
26277;SDS011;14000;52.056;8.510;2023-03-13T10:43:03;11.90;;;3.37;;
26277;SDS011;14000;52.056;8.510;2023-03-13T10:45:34;10.27;;;2.83;;
26277;SDS011;14000;52.056;8.510;2023-03-13T10:48:12;11.50;;;3.00;;
26277;SDS011;14000;52.056;8.510;2023-03-13T10:50:43;18.73;;;3.53;;
26277;SDS011;14000;52.056;8.510;2023-03-13T10:55:54;10.77;;;2.70;;
26277;SDS011;14000;52.056;8.510;2023-03-13T10:58:45;13.47;;;3.13;;
26277;SDS011;14000;52.056;8.510;2023-03-13T11:03:49;10.37;;;2.70;;
26277;SDS011;14000;52.056;8.510;2023-03-13T11:06:34;9.23;;;2.50;;
26277;SDS011;14000;52.056;8.510;2023-03-13T11:14:15;9.97;;;2.40;;
26277;SDS011;14000;52.056;8.510;2023-03-13T11:16:47;8.90;;;2.50;;
26277;SDS011;14000;52.056;8.510;2023-03-13T11:27:46;9.23;;;2.80;;
26277;SDS011;14000;52.056;8.510;2023-03-13T11:30:21;8.33;;;2.13;;
26277;SDS011;14000;52.056;8.510;2023-03-13T11:38:30;10.00;;;2.40;;
26277;SDS011;14000;52.056;8.510;2023-03-13T11:44:03;10.37;;;2.33;;
26277;SDS011;14000;52.056;8.510;2023-03-13T11:55:56;9.37;;;2.20;;
26277;SDS011;14000;52.056;8.510;2023-03-13T12:01:15;11.80;;;2.77;;
26277;SDS011;14000;52.056;8.510;2023-03-13T12:03:46;13.17;;;2.77;;
26277;SDS011;14000;52.056;8.510;2023-03-13T12:06:34;8.03;;;2.10;;
26277;SDS011;14000;52.056;8.510;2023-03-13T12:09:05;11.50;;;2.73;;
26277;SDS011;14000;52.056;8.510;2023-03-13T12:14:38;8.47;;;2.10;;
26277;SDS011;14000;52.056;8.510;2023-03-13T12:17:31;9.23;;;2.37;;
26277;SDS011;14000;52.056;8.510;2023-03-13T12:20:21;11.13;;;2.20;;
26277;SDS011;14000;52.056;8.510;2023-03-13T12:23:12;6.50;;;1.83;;
26277;SDS011;14000;52.056;8.510;2023-03-13T12:33:44;5.83;;;1.60;;
26277;SDS011;14000;52.056;8.510;2023-03-13T12:44:22;6.63;;;1.50;;
26277;SDS011;14000;52.056;8.510;2023-03-13T12:47:02;8.47;;;1.80;;
26277;SDS011;14000;52.056;8.510;2023-03-13T12:49:40;7.37;;;1.43;;
26277;SDS011;14000;52.056;8.510;2023-03-13T13:00:25;6.60;;;1.50;;
26277;SDS011;14000;52.056;8.510;2023-03-13T13:03:55;6.00;;;1.30;;
26277;SDS011;14000;52.056;8.510;2023-03-13T13:08:40;6.70;;;1.43;;
26277;SDS011;14000;52.056;8.510;2023-03-13T13:16:55;5.87;;;1.37;;
26277;SDS011;14000;52.056;8.510;2023-03-13T13:30:48;5.67;;;1.20;;
26277;SDS011;14000;52.056;8.510;2023-03-13T13:38:42;3.90;;;1.00;;
26277;SDS011;14000;52.056;8.510;2023-03-13T13:51:32;4.90;;;1.20;;
26277;SDS011;14000;52.056;8.510;2023-03-13T13:57:11;4.07;;;1.10;;
26277;SDS011;14000;52.056;8.510;2023-03-13T13:59:44;5.20;;;1.10;;
26277;SDS011;14000;52.056;8.510;2023-03-13T14:02:20;5.03;;;1.07;;
26277;SDS011;14000;52.056;8.510;2023-03-13T14:07:56;5.70;;;1.20;;
26277;SDS011;14000;52.056;8.510;2023-03-13T14:10:38;4.97;;;1.40;;
26277;SDS011;14000;52.056;8.510;2023-03-13T14:13:24;8.83;;;1.23;;
26277;SDS011;14000;52.056;8.510;2023-03-13T14:15:50;4.90;;;1.23;;
26277;SDS011;14000;52.056;8.510;2023-03-13T14:18:24;6.87;;;1.20;;
26277;SDS011;14000;52.056;8.510;2023-03-13T14:21:01;5.00;;;1.30;;
26277;SDS011;14000;52.056;8.510;2023-03-13T14:25:54;5.23;;;1.20;;
26277;SDS011;14000;52.056;8.510;2023-03-13T14:28:21;3.67;;;1.00;;
26277;SDS011;14000;52.056;8.510;2023-03-13T14:30:49;5.27;;;1.00;;
26277;SDS011;14000;52.056;8.510;2023-03-13T14:33:16;5.27;;;1.40;;
26277;SDS011;14000;52.056;8.510;2023-03-13T14:35:42;4.67;;;1.23;;
26277;SDS011;14000;52.056;8.510;2023-03-13T14:38:46;3.70;;;1.10;;
26277;SDS011;14000;52.056;8.510;2023-03-13T14:41:00;7.03;;;1.60;;
26277;SDS011;14000;52.056;8.510;2023-03-13T14:43:36;4.63;;;1.27;;
26277;SDS011;14000;52.056;8.510;2023-03-13T14:46:51;6.90;;;2.00;;
26277;SDS011;14000;52.056;8.510;2023-03-13T14:48:56;6.17;;;1.33;;
26277;SDS011;14000;52.056;8.510;2023-03-13T14:51:37;5.77;;;1.67;;
26277;SDS011;14000;52.056;8.510;2023-03-13T14:54:04;6.80;;;1.20;;
26277;SDS011;14000;52.056;8.510;2023-03-13T14:59:17;3.97;;;1.07;;
26277;SDS011;14000;52.056;8.510;2023-03-13T15:01:56;5.33;;;1.50;;
26277;SDS011;14000;52.056;8.510;2023-03-13T15:07:12;6.47;;;1.30;;
26277;SDS011;14000;52.056;8.510;2023-03-13T15:09:41;5.57;;;1.13;;
26277;SDS011;14000;52.056;8.510;2023-03-13T15:12:12;4.63;;;1.00;;
26277;SDS011;14000;52.056;8.510;2023-03-13T15:14:40;4.07;;;1.17;;
26277;SDS011;14000;52.056;8.510;2023-03-13T15:17:11;5.10;;;1.20;;
26277;SDS011;14000;52.056;8.510;2023-03-13T15:19:39;8.07;;;1.80;;
26277;SDS011;14000;52.056;8.510;2023-03-13T15:22:11;8.13;;;1.67;;
26277;SDS011;14000;52.056;8.510;2023-03-13T15:24:39;5.10;;;1.30;;
26277;SDS011;14000;52.056;8.510;2023-03-13T15:27:13;6.30;;;1.20;;
26277;SDS011;14000;52.056;8.510;2023-03-13T15:29:43;4.13;;;1.17;;
26277;SDS011;14000;52.056;8.510;2023-03-13T15:32:25;5.23;;;1.30;;
26277;SDS011;14000;52.056;8.510;2023-03-13T15:34:53;5.67;;;1.47;;
26277;SDS011;14000;52.056;8.510;2023-03-13T15:37:25;3.33;;;1.03;;
26277;SDS011;14000;52.056;8.510;2023-03-13T15:39:52;5.73;;;1.10;;
26277;SDS011;14000;52.056;8.510;2023-03-13T15:42:18;5.37;;;1.27;;
26277;SDS011;14000;52.056;8.510;2023-03-13T15:44:43;5.70;;;1.40;;
26277;SDS011;14000;52.056;8.510;2023-03-13T15:47:17;6.90;;;1.10;;
26277;SDS011;14000;52.056;8.510;2023-03-13T15:49:44;6.47;;;1.40;;
26277;SDS011;14000;52.056;8.510;2023-03-13T15:52:12;6.00;;;1.40;;
26277;SDS011;14000;52.056;8.510;2023-03-13T15:54:42;6.10;;;1.37;;
26277;SDS011;14000;52.056;8.510;2023-03-13T15:57:12;5.27;;;1.30;;
26277;SDS011;14000;52.056;8.510;2023-03-13T15:59:39;5.90;;;1.40;;
26277;SDS011;14000;52.056;8.510;2023-03-13T16:02:16;5.23;;;1.30;;
26277;SDS011;14000;52.056;8.510;2023-03-13T16:04:43;8.67;;;1.40;;
26277;SDS011;14000;52.056;8.510;2023-03-13T16:07:10;6.23;;;1.23;;
26277;SDS011;14000;52.056;8.510;2023-03-13T16:09:36;5.17;;;1.20;;
26277;SDS011;14000;52.056;8.510;2023-03-13T16:12:03;4.90;;;1.30;;
26277;SDS011;14000;52.056;8.510;2023-03-13T16:14:29;3.70;;;1.07;;
26277;SDS011;14000;52.056;8.510;2023-03-13T16:16:54;9.23;;;1.60;;
26277;SDS011;14000;52.056;8.510;2023-03-13T16:19:20;5.83;;;1.37;;
26277;SDS011;14000;52.056;8.510;2023-03-13T16:21:46;6.30;;;1.37;;
26277;SDS011;14000;52.056;8.510;2023-03-13T16:24:13;7.13;;;1.33;;
26277;SDS011;14000;52.056;8.510;2023-03-13T16:26:41;8.23;;;1.43;;
26277;SDS011;14000;52.056;8.510;2023-03-13T16:29:09;5.90;;;1.20;;
26277;SDS011;14000;52.056;8.510;2023-03-13T16:31:38;7.63;;;1.53;;
26277;SDS011;14000;52.056;8.510;2023-03-13T16:34:04;7.90;;;1.80;;
26277;SDS011;14000;52.056;8.510;2023-03-13T16:36:30;6.53;;;1.50;;
26277;SDS011;14000;52.056;8.510;2023-03-13T16:39:00;6.63;;;1.50;;
26277;SDS011;14000;52.056;8.510;2023-03-13T16:41:29;6.30;;;1.40;;
26277;SDS011;14000;52.056;8.510;2023-03-13T16:43:56;6.30;;;1.77;;
26277;SDS011;14000;52.056;8.510;2023-03-13T16:46:35;6.57;;;1.40;;
26277;SDS011;14000;52.056;8.510;2023-03-13T16:49:02;5.87;;;1.33;;
26277;SDS011;14000;52.056;8.510;2023-03-13T16:51:29;6.83;;;1.33;;
26277;SDS011;14000;52.056;8.510;2023-03-13T16:53:56;4.70;;;1.33;;
26277;SDS011;14000;52.056;8.510;2023-03-13T16:56:27;5.93;;;1.20;;
26277;SDS011;14000;52.056;8.510;2023-03-13T16:58:54;6.67;;;1.30;;
26277;SDS011;14000;52.056;8.510;2023-03-13T17:01:21;9.17;;;2.17;;
26277;SDS011;14000;52.056;8.510;2023-03-13T17:03:51;6.97;;;1.40;;
26277;SDS011;14000;52.056;8.510;2023-03-13T17:06:21;5.97;;;1.70;;
26277;SDS011;14000;52.056;8.510;2023-03-13T17:08:48;5.63;;;1.33;;
26277;SDS011;14000;52.056;8.510;2023-03-13T17:11:14;11.07;;;1.80;;